sensor_id;sensor_type;location;lat;lon;timestamp;P1;durP1;ratioP1;P2;durP2;ratioP2
12312;SDS011;6220;53.580;9.758;2023-02-15T00:01:32;25.87;;;19.07;;
12312;SDS011;6220;53.580;9.758;2023-02-15T00:03:58;29.63;;;20.60;;
12312;SDS011;6220;53.580;9.758;2023-02-15T00:06:23;26.63;;;19.00;;
12312;SDS011;6220;53.580;9.758;2023-02-15T00:08:48;31.17;;;19.97;;
12312;SDS011;6220;53.580;9.758;2023-02-15T00:11:15;26.63;;;19.87;;
12312;SDS011;6220;53.580;9.758;2023-02-15T00:13:42;29.80;;;20.73;;
12312;SDS011;6220;53.580;9.758;2023-02-15T00:16:11;26.47;;;19.67;;
12312;SDS011;6220;53.580;9.758;2023-02-15T00:18:37;27.70;;;19.30;;
12312;SDS011;6220;53.580;9.758;2023-02-15T00:21:04;28.23;;;20.23;;
12312;SDS011;6220;53.580;9.758;2023-02-15T00:23:31;28.20;;;20.20;;
12312;SDS011;6220;53.580;9.758;2023-02-15T00:26:03;28.50;;;20.93;;
12312;SDS011;6220;53.580;9.758;2023-02-15T00:28:33;29.70;;;20.20;;
12312;SDS011;6220;53.580;9.758;2023-02-15T00:31:17;29.40;;;21.40;;
12312;SDS011;6220;53.580;9.758;2023-02-15T00:33:42;28.53;;;19.43;;
12312;SDS011;6220;53.580;9.758;2023-02-15T00:36:09;30.07;;;20.73;;
12312;SDS011;6220;53.580;9.758;2023-02-15T00:38:35;28.43;;;19.80;;
12312;SDS011;6220;53.580;9.758;2023-02-15T00:41:01;29.23;;;19.50;;
12312;SDS011;6220;53.580;9.758;2023-02-15T00:43:29;29.70;;;20.37;;
12312;SDS011;6220;53.580;9.758;2023-02-15T00:45:56;29.10;;;20.77;;
12312;SDS011;6220;53.580;9.758;2023-02-15T00:48:21;28.43;;;18.93;;
12312;SDS011;6220;53.580;9.758;2023-02-15T00:50:51;27.87;;;20.23;;
12312;SDS011;6220;53.580;9.758;2023-02-15T00:53:18;27.67;;;19.13;;
12312;SDS011;6220;53.580;9.758;2023-02-15T00:55:44;26.23;;;19.87;;
12312;SDS011;6220;53.580;9.758;2023-02-15T00:58:09;25.43;;;18.00;;
12312;SDS011;6220;53.580;9.758;2023-02-15T01:00:36;26.97;;;18.40;;
12312;SDS011;6220;53.580;9.758;2023-02-15T01:03:02;26.57;;;20.07;;
12312;SDS011;6220;53.580;9.758;2023-02-15T01:05:27;28.17;;;19.73;;
12312;SDS011;6220;53.580;9.758;2023-02-15T01:07:54;28.03;;;19.03;;
12312;SDS011;6220;53.580;9.758;2023-02-15T01:10:20;27.40;;;20.00;;
12312;SDS011;6220;53.580;9.758;2023-02-15T01:12:45;28.27;;;18.73;;
12312;SDS011;6220;53.580;9.758;2023-02-15T01:15:11;26.20;;;19.20;;
12312;SDS011;6220;53.580;9.758;2023-02-15T01:17:36;29.13;;;20.03;;
12312;SDS011;6220;53.580;9.758;2023-02-15T01:20:01;26.07;;;19.00;;
12312;SDS011;6220;53.580;9.758;2023-02-15T01:22:27;28.87;;;19.53;;
12312;SDS011;6220;53.580;9.758;2023-02-15T01:24:52;30.87;;;20.80;;
12312;SDS011;6220;53.580;9.758;2023-02-15T01:27:17;28.77;;;21.00;;
12312;SDS011;6220;53.580;9.758;2023-02-15T01:29:43;29.47;;;20.93;;
12312;SDS011;6220;53.580;9.758;2023-02-15T01:32:08;29.03;;;21.20;;
12312;SDS011;6220;53.580;9.758;2023-02-15T01:34:34;29.27;;;21.00;;
12312;SDS011;6220;53.580;9.758;2023-02-15T01:36:59;31.13;;;21.33;;
12312;SDS011;6220;53.580;9.758;2023-02-15T01:39:25;44.47;;;23.83;;
12312;SDS011;6220;53.580;9.758;2023-02-15T01:41:50;33.57;;;23.50;;
12312;SDS011;6220;53.580;9.758;2023-02-15T01:47:12;31.33;;;21.87;;
12312;SDS011;6220;53.580;9.758;2023-02-15T01:49:41;36.57;;;23.57;;
12312;SDS011;6220;53.580;9.758;2023-02-15T01:52:08;34.90;;;23.07;;
12312;SDS011;6220;53.580;9.758;2023-02-15T01:54:34;36.37;;;23.03;;
12312;SDS011;6220;53.580;9.758;2023-02-15T01:57:04;36.07;;;24.00;;
12312;SDS011;6220;53.580;9.758;2023-02-15T01:59:30;37.17;;;23.70;;
12312;SDS011;6220;53.580;9.758;2023-02-15T02:01:57;38.70;;;24.77;;
12312;SDS011;6220;53.580;9.758;2023-02-15T02:06:54;38.47;;;24.70;;
12312;SDS011;6220;53.580;9.758;2023-02-15T02:09:22;38.57;;;25.73;;
12312;SDS011;6220;53.580;9.758;2023-02-15T02:11:47;37.97;;;23.63;;
12312;SDS011;6220;53.580;9.758;2023-02-15T02:14:13;37.13;;;24.40;;
12312;SDS011;6220;53.580;9.758;2023-02-15T02:27:47;32.57;;;22.37;;
12312;SDS011;6220;53.580;9.758;2023-02-15T02:30:26;33.17;;;23.07;;
12312;SDS011;6220;53.580;9.758;2023-02-15T02:33:12;33.43;;;23.27;;
12312;SDS011;6220;53.580;9.758;2023-02-15T02:35:56;35.87;;;23.33;;
12312;SDS011;6220;53.580;9.758;2023-02-15T02:46:58;36.63;;;24.30;;
12312;SDS011;6220;53.580;9.758;2023-02-15T02:49:42;34.43;;;23.93;;
12312;SDS011;6220;53.580;9.758;2023-02-15T02:55:04;37.00;;;24.03;;
12312;SDS011;6220;53.580;9.758;2023-02-15T02:57:32;36.03;;;24.40;;
12312;SDS011;6220;53.580;9.758;2023-02-15T02:59:58;36.03;;;25.40;;
12312;SDS011;6220;53.580;9.758;2023-02-15T03:02:29;37.83;;;24.47;;
12312;SDS011;6220;53.580;9.758;2023-02-15T03:04:58;43.90;;;25.27;;
12312;SDS011;6220;53.580;9.758;2023-02-15T03:07:28;36.17;;;24.33;;
12312;SDS011;6220;53.580;9.758;2023-02-15T03:09:56;40.23;;;25.37;;
12312;SDS011;6220;53.580;9.758;2023-02-15T03:14:57;41.60;;;25.50;;
12312;SDS011;6220;53.580;9.758;2023-02-15T03:17:29;39.43;;;26.70;;
12312;SDS011;6220;53.580;9.758;2023-02-15T03:19:57;37.70;;;24.50;;
12312;SDS011;6220;53.580;9.758;2023-02-15T03:22:29;42.03;;;25.00;;
12312;SDS011;6220;53.580;9.758;2023-02-15T03:25:02;36.80;;;25.73;;
12312;SDS011;6220;53.580;9.758;2023-02-15T03:27:33;36.37;;;24.93;;
12312;SDS011;6220;53.580;9.758;2023-02-15T03:30:02;33.63;;;23.97;;
12312;SDS011;6220;53.580;9.758;2023-02-15T03:32:28;58.63;;;24.33;;
12312;SDS011;6220;53.580;9.758;2023-02-15T03:34:54;36.93;;;23.83;;
12312;SDS011;6220;53.580;9.758;2023-02-15T03:37:24;38.93;;;26.27;;
12312;SDS011;6220;53.580;9.758;2023-02-15T03:40:03;35.70;;;23.53;;
12312;SDS011;6220;53.580;9.758;2023-02-15T03:42:59;33.63;;;22.97;;
12312;SDS011;6220;53.580;9.758;2023-02-15T03:45:29;35.27;;;22.87;;
12312;SDS011;6220;53.580;9.758;2023-02-15T03:47:56;41.27;;;22.70;;
12312;SDS011;6220;53.580;9.758;2023-02-15T03:50:24;38.80;;;23.93;;
12312;SDS011;6220;53.580;9.758;2023-02-15T03:53:11;35.73;;;23.83;;
12312;SDS011;6220;53.580;9.758;2023-02-15T03:55:39;37.00;;;22.70;;
12312;SDS011;6220;53.580;9.758;2023-02-15T03:58:06;32.90;;;22.70;;
12312;SDS011;6220;53.580;9.758;2023-02-15T04:04:20;36.73;;;21.73;;
12312;SDS011;6220;53.580;9.758;2023-02-15T04:06:58;33.53;;;23.17;;
12312;SDS011;6220;53.580;9.758;2023-02-15T04:09:23;31.80;;;21.57;;
12312;SDS011;6220;53.580;9.758;2023-02-15T04:12:07;53.57;;;23.13;;
12312;SDS011;6220;53.580;9.758;2023-02-15T04:14:33;35.90;;;22.97;;
12312;SDS011;6220;53.580;9.758;2023-02-15T04:17:17;42.63;;;23.47;;
12312;SDS011;6220;53.580;9.758;2023-02-15T04:19:42;35.17;;;23.13;;
12312;SDS011;6220;53.580;9.758;2023-02-15T04:22:26;36.17;;;22.57;;
12312;SDS011;6220;53.580;9.758;2023-02-15T04:25:10;34.33;;;23.53;;
12312;SDS011;6220;53.580;9.758;2023-02-15T04:27:37;34.87;;;24.10;;
12312;SDS011;6220;53.580;9.758;2023-02-15T04:30:02;33.37;;;23.03;;
12312;SDS011;6220;53.580;9.758;2023-02-15T04:32:28;31.30;;;22.07;;
12312;SDS011;6220;53.580;9.758;2023-02-15T04:34:53;33.47;;;22.90;;
12312;SDS011;6220;53.580;9.758;2023-02-15T04:37:19;43.63;;;22.90;;
12312;SDS011;6220;53.580;9.758;2023-02-15T04:39:44;48.30;;;23.47;;
12312;SDS011;6220;53.580;9.758;2023-02-15T04:42:09;38.63;;;25.03;;
12312;SDS011;6220;53.580;9.758;2023-02-15T04:44:35;36.63;;;24.60;;
12312;SDS011;6220;53.580;9.758;2023-02-15T04:47:00;65.33;;;25.97;;
12312;SDS011;6220;53.580;9.758;2023-02-15T04:49:25;38.53;;;25.77;;
12312;SDS011;6220;53.580;9.758;2023-02-15T04:51:51;31.30;;;22.83;;
12312;SDS011;6220;53.580;9.758;2023-02-15T04:54:16;52.73;;;24.40;;
12312;SDS011;6220;53.580;9.758;2023-02-15T04:56:42;48.97;;;23.00;;
12312;SDS011;6220;53.580;9.758;2023-02-15T04:59:10;85.90;;;23.63;;
12312;SDS011;6220;53.580;9.758;2023-02-15T05:01:36;137.90;;;25.53;;
12312;SDS011;6220;53.580;9.758;2023-02-15T05:04:01;133.13;;;25.77;;
12312;SDS011;6220;53.580;9.758;2023-02-15T05:06:27;64.27;;;23.23;;
12312;SDS011;6220;53.580;9.758;2023-02-15T05:08:53;62.20;;;24.03;;
12312;SDS011;6220;53.580;9.758;2023-02-15T05:11:18;31.60;;;23.23;;
12312;SDS011;6220;53.580;9.758;2023-02-15T05:13:43;29.23;;;19.93;;
12312;SDS011;6220;53.580;9.758;2023-02-15T05:16:09;31.50;;;21.00;;
12312;SDS011;6220;53.580;9.758;2023-02-15T05:18:34;48.17;;;20.27;;
12312;SDS011;6220;53.580;9.758;2023-02-15T05:20:59;68.77;;;21.03;;
12312;SDS011;6220;53.580;9.758;2023-02-15T05:23:25;30.97;;;21.50;;
12312;SDS011;6220;53.580;9.758;2023-02-15T05:25:50;43.90;;;20.53;;
12312;SDS011;6220;53.580;9.758;2023-02-15T05:28:35;28.43;;;19.47;;
12312;SDS011;6220;53.580;9.758;2023-02-15T05:31:10;33.73;;;19.37;;
12312;SDS011;6220;53.580;9.758;2023-02-15T05:33:37;51.47;;;18.97;;
12312;SDS011;6220;53.580;9.758;2023-02-15T05:36:03;27.03;;;18.53;;
12312;SDS011;6220;53.580;9.758;2023-02-15T05:38:29;36.87;;;19.10;;
12312;SDS011;6220;53.580;9.758;2023-02-15T05:40:55;47.03;;;17.93;;
12312;SDS011;6220;53.580;9.758;2023-02-15T05:43:20;46.00;;;18.53;;
12312;SDS011;6220;53.580;9.758;2023-02-15T05:45:49;24.50;;;18.47;;
12312;SDS011;6220;53.580;9.758;2023-02-15T05:48:17;26.37;;;17.47;;
12312;SDS011;6220;53.580;9.758;2023-02-15T05:50:43;24.27;;;17.80;;
12312;SDS011;6220;53.580;9.758;2023-02-15T05:53:08;21.13;;;17.03;;
12312;SDS011;6220;53.580;9.758;2023-02-15T05:55:33;24.87;;;16.83;;
12312;SDS011;6220;53.580;9.758;2023-02-15T05:57:59;23.87;;;17.47;;
12312;SDS011;6220;53.580;9.758;2023-02-15T06:00:24;37.53;;;18.17;;
12312;SDS011;6220;53.580;9.758;2023-02-15T06:02:50;59.73;;;19.63;;
12312;SDS011;6220;53.580;9.758;2023-02-15T06:05:16;29.70;;;18.33;;
12312;SDS011;6220;53.580;9.758;2023-02-15T06:07:44;27.67;;;18.87;;
12312;SDS011;6220;53.580;9.758;2023-02-15T06:10:10;25.30;;;17.80;;
12312;SDS011;6220;53.580;9.758;2023-02-15T06:12:35;43.80;;;19.33;;
12312;SDS011;6220;53.580;9.758;2023-02-15T06:15:01;37.83;;;19.00;;
12312;SDS011;6220;53.580;9.758;2023-02-15T06:17:27;47.23;;;18.37;;
12312;SDS011;6220;53.580;9.758;2023-02-15T06:19:52;21.97;;;17.80;;
12312;SDS011;6220;53.580;9.758;2023-02-15T06:22:17;26.57;;;18.10;;
12312;SDS011;6220;53.580;9.758;2023-02-15T06:24:43;37.70;;;17.40;;
12312;SDS011;6220;53.580;9.758;2023-02-15T06:27:09;33.20;;;17.70;;
12312;SDS011;6220;53.580;9.758;2023-02-15T06:29:35;29.57;;;17.37;;
12312;SDS011;6220;53.580;9.758;2023-02-15T06:32:00;31.40;;;17.80;;
12312;SDS011;6220;53.580;9.758;2023-02-15T06:34:26;50.37;;;17.37;;
12312;SDS011;6220;53.580;9.758;2023-02-15T06:36:51;39.37;;;18.27;;
12312;SDS011;6220;53.580;9.758;2023-02-15T06:39:16;23.43;;;18.10;;
12312;SDS011;6220;53.580;9.758;2023-02-15T06:41:42;25.23;;;17.97;;
12312;SDS011;6220;53.580;9.758;2023-02-15T06:44:07;48.30;;;18.33;;
12312;SDS011;6220;53.580;9.758;2023-02-15T06:46:32;34.83;;;16.73;;
12312;SDS011;6220;53.580;9.758;2023-02-15T06:48:58;40.30;;;17.00;;
12312;SDS011;6220;53.580;9.758;2023-02-15T06:51:23;26.20;;;16.57;;
12312;SDS011;6220;53.580;9.758;2023-02-15T06:53:48;23.57;;;15.37;;
12312;SDS011;6220;53.580;9.758;2023-02-15T06:56:14;24.33;;;16.73;;
12312;SDS011;6220;53.580;9.758;2023-02-15T06:58:39;19.53;;;16.03;;
12312;SDS011;6220;53.580;9.758;2023-02-15T07:01:06;35.03;;;16.37;;
12312;SDS011;6220;53.580;9.758;2023-02-15T07:03:32;40.60;;;17.30;;
12312;SDS011;6220;53.580;9.758;2023-02-15T07:05:58;21.20;;;16.20;;
12312;SDS011;6220;53.580;9.758;2023-02-15T07:08:25;29.70;;;16.80;;
12312;SDS011;6220;53.580;9.758;2023-02-15T07:10:52;37.93;;;16.50;;
12312;SDS011;6220;53.580;9.758;2023-02-15T07:13:19;46.53;;;17.10;;
12312;SDS011;6220;53.580;9.758;2023-02-15T07:15:45;31.23;;;17.63;;
12312;SDS011;6220;53.580;9.758;2023-02-15T07:18:11;27.50;;;18.57;;
12312;SDS011;6220;53.580;9.758;2023-02-15T07:20:37;39.37;;;17.97;;
12312;SDS011;6220;53.580;9.758;2023-02-15T07:23:03;23.30;;;17.20;;
12312;SDS011;6220;53.580;9.758;2023-02-15T07:25:29;28.50;;;17.63;;
12312;SDS011;6220;53.580;9.758;2023-02-15T07:27:55;42.83;;;18.20;;
12312;SDS011;6220;53.580;9.758;2023-02-15T07:30:27;36.37;;;19.40;;
12312;SDS011;6220;53.580;9.758;2023-02-15T07:32:59;37.33;;;19.33;;
12312;SDS011;6220;53.580;9.758;2023-02-15T07:35:46;38.63;;;20.23;;
12312;SDS011;6220;53.580;9.758;2023-02-15T07:38:12;29.27;;;17.63;;
12312;SDS011;6220;53.580;9.758;2023-02-15T07:40:38;28.13;;;18.80;;
12312;SDS011;6220;53.580;9.758;2023-02-15T07:43:03;33.47;;;18.47;;
12312;SDS011;6220;53.580;9.758;2023-02-15T07:45:28;27.97;;;19.57;;
12312;SDS011;6220;53.580;9.758;2023-02-15T07:47:54;35.20;;;18.70;;
12312;SDS011;6220;53.580;9.758;2023-02-15T07:50:19;35.60;;;18.80;;
12312;SDS011;6220;53.580;9.758;2023-02-15T07:52:45;43.20;;;20.30;;
12312;SDS011;6220;53.580;9.758;2023-02-15T07:55:10;31.80;;;19.07;;
12312;SDS011;6220;53.580;9.758;2023-02-15T07:57:37;26.00;;;17.57;;
12312;SDS011;6220;53.580;9.758;2023-02-15T08:00:07;35.50;;;18.43;;
12312;SDS011;6220;53.580;9.758;2023-02-15T08:02:32;29.00;;;16.90;;
12312;SDS011;6220;53.580;9.758;2023-02-15T08:04:58;31.27;;;16.87;;
12312;SDS011;6220;53.580;9.758;2023-02-15T08:07:24;38.10;;;17.60;;
12312;SDS011;6220;53.580;9.758;2023-02-15T08:09:49;28.40;;;16.40;;
12312;SDS011;6220;53.580;9.758;2023-02-15T08:12:14;21.50;;;16.30;;
12312;SDS011;6220;53.580;9.758;2023-02-15T08:14:40;25.90;;;16.47;;
12312;SDS011;6220;53.580;9.758;2023-02-15T08:17:05;22.33;;;16.40;;
12312;SDS011;6220;53.580;9.758;2023-02-15T08:19:31;22.53;;;16.00;;
12312;SDS011;6220;53.580;9.758;2023-02-15T08:22:04;25.13;;;16.33;;
12312;SDS011;6220;53.580;9.758;2023-02-15T08:24:31;25.60;;;16.97;;
12312;SDS011;6220;53.580;9.758;2023-02-15T08:26:58;24.77;;;16.97;;
12312;SDS011;6220;53.580;9.758;2023-02-15T08:29:25;21.30;;;16.93;;
12312;SDS011;6220;53.580;9.758;2023-02-15T08:31:55;25.63;;;15.63;;
12312;SDS011;6220;53.580;9.758;2023-02-15T08:34:27;24.47;;;17.60;;
12312;SDS011;6220;53.580;9.758;2023-02-15T08:36:53;20.80;;;16.37;;
12312;SDS011;6220;53.580;9.758;2023-02-15T08:39:18;20.87;;;16.63;;
12312;SDS011;6220;53.580;9.758;2023-02-15T08:41:44;20.90;;;16.23;;
12312;SDS011;6220;53.580;9.758;2023-02-15T08:44:11;23.53;;;16.87;;
12312;SDS011;6220;53.580;9.758;2023-02-15T08:46:38;21.30;;;16.23;;
12312;SDS011;6220;53.580;9.758;2023-02-15T08:49:04;20.60;;;16.53;;
12312;SDS011;6220;53.580;9.758;2023-02-15T08:51:30;19.03;;;15.67;;
12312;SDS011;6220;53.580;9.758;2023-02-15T08:53:58;19.53;;;14.97;;
12312;SDS011;6220;53.580;9.758;2023-02-15T08:56:26;24.10;;;17.00;;
12312;SDS011;6220;53.580;9.758;2023-02-15T08:58:53;24.33;;;18.17;;
12312;SDS011;6220;53.580;9.758;2023-02-15T09:01:20;22.57;;;17.13;;
12312;SDS011;6220;53.580;9.758;2023-02-15T09:03:47;23.33;;;16.67;;
12312;SDS011;6220;53.580;9.758;2023-02-15T09:06:18;25.17;;;17.67;;
12312;SDS011;6220;53.580;9.758;2023-02-15T09:08:44;27.17;;;17.80;;
12312;SDS011;6220;53.580;9.758;2023-02-15T09:11:10;22.97;;;15.93;;
12312;SDS011;6220;53.580;9.758;2023-02-15T09:13:38;23.67;;;17.63;;
12312;SDS011;6220;53.580;9.758;2023-02-15T09:16:08;22.80;;;17.07;;
12312;SDS011;6220;53.580;9.758;2023-02-15T09:18:35;21.93;;;16.57;;
12312;SDS011;6220;53.580;9.758;2023-02-15T09:21:06;23.40;;;18.03;;
12312;SDS011;6220;53.580;9.758;2023-02-15T09:23:36;23.20;;;17.43;;
12312;SDS011;6220;53.580;9.758;2023-02-15T09:26:05;22.13;;;17.23;;
12312;SDS011;6220;53.580;9.758;2023-02-15T09:28:32;24.23;;;17.67;;
12312;SDS011;6220;53.580;9.758;2023-02-15T09:31:04;24.50;;;18.53;;
12312;SDS011;6220;53.580;9.758;2023-02-15T09:33:31;25.83;;;18.13;;
12312;SDS011;6220;53.580;9.758;2023-02-15T09:35:58;24.03;;;18.40;;
12312;SDS011;6220;53.580;9.758;2023-02-15T09:38:23;26.87;;;18.80;;
12312;SDS011;6220;53.580;9.758;2023-02-15T09:41:02;24.00;;;18.37;;
12312;SDS011;6220;53.580;9.758;2023-02-15T09:43:39;26.23;;;18.87;;
12312;SDS011;6220;53.580;9.758;2023-02-15T09:48:48;23.77;;;17.37;;
12312;SDS011;6220;53.580;9.758;2023-02-15T09:56:57;26.67;;;18.20;;
12312;SDS011;6220;53.580;9.758;2023-02-15T09:59:39;22.10;;;17.50;;
12312;SDS011;6220;53.580;9.758;2023-02-15T10:02:30;24.13;;;18.23;;
12312;SDS011;6220;53.580;9.758;2023-02-15T10:14:14;25.77;;;18.03;;
12312;SDS011;6220;53.580;9.758;2023-02-15T10:27:28;28.70;;;20.40;;
12312;SDS011;6220;53.580;9.758;2023-02-15T10:32:46;34.97;;;21.73;;
12312;SDS011;6220;53.580;9.758;2023-02-15T10:38:18;26.33;;;20.03;;
12312;SDS011;6220;53.580;9.758;2023-02-15T10:46:24;26.83;;;21.30;;
12312;SDS011;6220;53.580;9.758;2023-02-15T10:51:30;32.07;;;21.73;;
12312;SDS011;6220;53.580;9.758;2023-02-15T10:56:59;32.90;;;22.00;;
12312;SDS011;6220;53.580;9.758;2023-02-15T11:07:54;81.13;;;25.27;;
12312;SDS011;6220;53.580;9.758;2023-02-15T11:13:14;39.97;;;24.53;;
12312;SDS011;6220;53.580;9.758;2023-02-15T11:16:15;32.20;;;23.93;;
12312;SDS011;6220;53.580;9.758;2023-02-15T11:18:41;32.70;;;23.57;;
12312;SDS011;6220;53.580;9.758;2023-02-15T11:21:17;36.37;;;24.07;;
12312;SDS011;6220;53.580;9.758;2023-02-15T11:23:46;28.73;;;22.13;;
12312;SDS011;6220;53.580;9.758;2023-02-15T11:26:13;33.37;;;24.47;;
12312;SDS011;6220;53.580;9.758;2023-02-15T11:28:43;29.87;;;23.57;;
12312;SDS011;6220;53.580;9.758;2023-02-15T11:31:21;28.13;;;22.60;;
12312;SDS011;6220;53.580;9.758;2023-02-15T11:33:52;28.00;;;21.97;;
12312;SDS011;6220;53.580;9.758;2023-02-15T11:36:41;30.20;;;21.93;;
12312;SDS011;6220;53.580;9.758;2023-02-15T11:39:10;27.07;;;21.63;;
12312;SDS011;6220;53.580;9.758;2023-02-15T11:41:39;31.60;;;22.63;;
12312;SDS011;6220;53.580;9.758;2023-02-15T11:44:10;25.57;;;21.33;;
12312;SDS011;6220;53.580;9.758;2023-02-15T11:46:37;29.20;;;23.07;;
12312;SDS011;6220;53.580;9.758;2023-02-15T11:49:46;32.13;;;25.07;;
12312;SDS011;6220;53.580;9.758;2023-02-15T11:51:56;36.27;;;26.60;;
12312;SDS011;6220;53.580;9.758;2023-02-15T11:54:30;36.07;;;26.73;;
12312;SDS011;6220;53.580;9.758;2023-02-15T11:56:59;34.40;;;25.33;;
12312;SDS011;6220;53.580;9.758;2023-02-15T11:59:32;37.13;;;27.67;;
12312;SDS011;6220;53.580;9.758;2023-02-15T12:02:00;36.80;;;28.13;;
12312;SDS011;6220;53.580;9.758;2023-02-15T12:04:26;39.70;;;27.87;;
12312;SDS011;6220;53.580;9.758;2023-02-15T12:07:11;36.07;;;27.53;;
12312;SDS011;6220;53.580;9.758;2023-02-15T12:09:46;38.17;;;28.07;;
12312;SDS011;6220;53.580;9.758;2023-02-15T12:15:03;35.33;;;27.80;;
12312;SDS011;6220;53.580;9.758;2023-02-15T12:17:32;36.17;;;27.33;;
12312;SDS011;6220;53.580;9.758;2023-02-15T12:20:01;34.67;;;26.87;;
12312;SDS011;6220;53.580;9.758;2023-02-15T12:22:30;36.53;;;27.43;;
12312;SDS011;6220;53.580;9.758;2023-02-15T12:25:01;34.77;;;26.27;;
12312;SDS011;6220;53.580;9.758;2023-02-15T12:27:30;32.57;;;25.67;;
12312;SDS011;6220;53.580;9.758;2023-02-15T12:30:01;32.33;;;24.23;;
12312;SDS011;6220;53.580;9.758;2023-02-15T12:32:31;26.37;;;22.27;;
12312;SDS011;6220;53.580;9.758;2023-02-15T12:35:08;26.27;;;22.70;;
12312;SDS011;6220;53.580;9.758;2023-02-15T12:37:37;25.43;;;22.30;;
12312;SDS011;6220;53.580;9.758;2023-02-15T12:40:18;25.60;;;22.77;;
12312;SDS011;6220;53.580;9.758;2023-02-15T12:42:48;25.40;;;22.43;;
12312;SDS011;6220;53.580;9.758;2023-02-15T12:45:21;26.50;;;23.60;;
12312;SDS011;6220;53.580;9.758;2023-02-15T12:48:13;24.50;;;21.10;;
12312;SDS011;6220;53.580;9.758;2023-02-15T12:50:49;25.37;;;22.03;;
12312;SDS011;6220;53.580;9.758;2023-02-15T12:53:20;23.77;;;21.20;;
12312;SDS011;6220;53.580;9.758;2023-02-15T12:58:23;24.77;;;20.77;;
12312;SDS011;6220;53.580;9.758;2023-02-15T13:06:20;24.73;;;22.03;;
12312;SDS011;6220;53.580;9.758;2023-02-15T13:08:46;23.70;;;21.37;;
12312;SDS011;6220;53.580;9.758;2023-02-15T13:11:13;23.10;;;20.67;;
12312;SDS011;6220;53.580;9.758;2023-02-15T13:13:53;22.90;;;20.60;;
12312;SDS011;6220;53.580;9.758;2023-02-15T13:19:16;25.27;;;22.73;;
12312;SDS011;6220;53.580;9.758;2023-02-15T13:21:47;25.97;;;23.27;;
12312;SDS011;6220;53.580;9.758;2023-02-15T13:24:16;24.27;;;21.77;;
12312;SDS011;6220;53.580;9.758;2023-02-15T13:26:44;24.90;;;22.27;;
12312;SDS011;6220;53.580;9.758;2023-02-15T13:29:15;24.87;;;22.43;;
12312;SDS011;6220;53.580;9.758;2023-02-15T13:31:56;24.87;;;22.27;;
12312;SDS011;6220;53.580;9.758;2023-02-15T13:34:28;26.20;;;23.43;;
12312;SDS011;6220;53.580;9.758;2023-02-15T13:50:36;26.60;;;23.80;;
12312;SDS011;6220;53.580;9.758;2023-02-15T14:03:42;25.63;;;22.30;;
12312;SDS011;6220;53.580;9.758;2023-02-15T14:17:03;25.37;;;22.77;;
12312;SDS011;6220;53.580;9.758;2023-02-15T14:19:37;26.50;;;23.60;;
12312;SDS011;6220;53.580;9.758;2023-02-15T14:24:42;25.20;;;22.63;;
12312;SDS011;6220;53.580;9.758;2023-02-15T14:27:20;25.97;;;23.37;;
12312;SDS011;6220;53.580;9.758;2023-02-15T14:29:57;25.97;;;23.27;;
12312;SDS011;6220;53.580;9.758;2023-02-15T14:35:04;26.60;;;23.13;;
12312;SDS011;6220;53.580;9.758;2023-02-15T14:48:46;25.53;;;22.57;;
12312;SDS011;6220;53.580;9.758;2023-02-15T14:51:39;27.30;;;23.83;;
12312;SDS011;6220;53.580;9.758;2023-02-15T14:54:06;27.07;;;23.53;;
12312;SDS011;6220;53.580;9.758;2023-02-15T14:56:32;27.97;;;24.97;;
12312;SDS011;6220;53.580;9.758;2023-02-15T14:59:18;27.37;;;24.17;;
12312;SDS011;6220;53.580;9.758;2023-02-15T15:01:55;28.30;;;25.20;;
12312;SDS011;6220;53.580;9.758;2023-02-15T15:04:37;26.27;;;23.33;;
12312;SDS011;6220;53.580;9.758;2023-02-15T15:07:08;28.67;;;25.17;;
12312;SDS011;6220;53.580;9.758;2023-02-15T15:09:40;28.37;;;25.03;;
12312;SDS011;6220;53.580;9.758;2023-02-15T15:14:51;29.30;;;26.10;;
12312;SDS011;6220;53.580;9.758;2023-02-15T15:20:37;29.13;;;25.73;;
12312;SDS011;6220;53.580;9.758;2023-02-15T15:22:50;29.40;;;25.67;;
12312;SDS011;6220;53.580;9.758;2023-02-15T15:31:00;29.50;;;24.90;;
12312;SDS011;6220;53.580;9.758;2023-02-15T15:33:39;28.63;;;23.83;;
12312;SDS011;6220;53.580;9.758;2023-02-15T15:45:22;28.20;;;24.00;;
12312;SDS011;6220;53.580;9.758;2023-02-15T15:51:18;29.63;;;25.20;;
12312;SDS011;6220;53.580;9.758;2023-02-15T15:53:56;32.10;;;26.37;;
12312;SDS011;6220;53.580;9.758;2023-02-15T15:56:26;29.33;;;24.90;;
12312;SDS011;6220;53.580;9.758;2023-02-15T15:58:56;36.07;;;25.90;;
12312;SDS011;6220;53.580;9.758;2023-02-15T16:01:29;30.53;;;25.43;;
12312;SDS011;6220;53.580;9.758;2023-02-15T16:03:56;29.33;;;26.17;;
12312;SDS011;6220;53.580;9.758;2023-02-15T16:06:30;32.03;;;26.70;;
12312;SDS011;6220;53.580;9.758;2023-02-15T16:09:15;30.57;;;26.77;;
12312;SDS011;6220;53.580;9.758;2023-02-15T16:11:46;31.40;;;24.77;;
12312;SDS011;6220;53.580;9.758;2023-02-15T16:14:18;32.17;;;25.40;;
12312;SDS011;6220;53.580;9.758;2023-02-15T16:17:01;31.83;;;25.33;;
12312;SDS011;6220;53.580;9.758;2023-02-15T16:19:31;30.17;;;25.00;;
12312;SDS011;6220;53.580;9.758;2023-02-15T16:21:58;31.17;;;24.67;;
12312;SDS011;6220;53.580;9.758;2023-02-15T16:24:28;29.17;;;24.57;;
12312;SDS011;6220;53.580;9.758;2023-02-15T16:27:17;29.10;;;24.53;;
12312;SDS011;6220;53.580;9.758;2023-02-15T16:29:48;33.07;;;25.47;;
12312;SDS011;6220;53.580;9.758;2023-02-15T16:34:58;34.30;;;26.57;;
12312;SDS011;6220;53.580;9.758;2023-02-15T16:37:28;34.40;;;26.47;;
12312;SDS011;6220;53.580;9.758;2023-02-15T16:39:57;30.67;;;25.00;;
12312;SDS011;6220;53.580;9.758;2023-02-15T16:42:22;30.20;;;24.87;;
12312;SDS011;6220;53.580;9.758;2023-02-15T16:44:54;31.77;;;26.20;;
12312;SDS011;6220;53.580;9.758;2023-02-15T16:47:27;32.50;;;26.50;;
12312;SDS011;6220;53.580;9.758;2023-02-15T16:49:55;33.53;;;26.47;;
12312;SDS011;6220;53.580;9.758;2023-02-15T16:52:26;30.87;;;25.37;;
12312;SDS011;6220;53.580;9.758;2023-02-15T16:54:54;34.87;;;25.43;;
12312;SDS011;6220;53.580;9.758;2023-02-15T16:57:23;33.23;;;24.93;;
12312;SDS011;6220;53.580;9.758;2023-02-15T16:59:52;33.07;;;25.40;;
12312;SDS011;6220;53.580;9.758;2023-02-15T17:02:20;32.73;;;26.27;;
12312;SDS011;6220;53.580;9.758;2023-02-15T17:07:27;30.60;;;24.37;;
12312;SDS011;6220;53.580;9.758;2023-02-15T17:09:54;31.27;;;24.53;;
12312;SDS011;6220;53.580;9.758;2023-02-15T17:12:43;30.00;;;25.17;;
12312;SDS011;6220;53.580;9.758;2023-02-15T17:18:32;30.40;;;24.83;;
12312;SDS011;6220;53.580;9.758;2023-02-15T17:21:10;30.37;;;24.33;;
12312;SDS011;6220;53.580;9.758;2023-02-15T17:26:16;30.37;;;23.97;;
12312;SDS011;6220;53.580;9.758;2023-02-15T17:28:48;33.97;;;24.63;;
12312;SDS011;6220;53.580;9.758;2023-02-15T17:31:18;27.70;;;23.57;;
12312;SDS011;6220;53.580;9.758;2023-02-15T17:33:45;31.10;;;23.63;;
12312;SDS011;6220;53.580;9.758;2023-02-15T17:36:21;32.30;;;25.83;;
12312;SDS011;6220;53.580;9.758;2023-02-15T17:41:29;28.17;;;22.10;;
12312;SDS011;6220;53.580;9.758;2023-02-15T17:43:59;31.33;;;23.73;;
12312;SDS011;6220;53.580;9.758;2023-02-15T17:46:25;29.57;;;23.17;;
12312;SDS011;6220;53.580;9.758;2023-02-15T17:48:52;26.03;;;21.30;;
12312;SDS011;6220;53.580;9.758;2023-02-15T17:51:19;29.27;;;22.03;;
12312;SDS011;6220;53.580;9.758;2023-02-15T17:53:45;26.10;;;20.80;;
12312;SDS011;6220;53.580;9.758;2023-02-15T17:56:29;30.90;;;21.93;;
12312;SDS011;6220;53.580;9.758;2023-02-15T17:58:55;32.07;;;22.87;;
12312;SDS011;6220;53.580;9.758;2023-02-15T18:01:20;30.00;;;22.73;;